createdAt,value
2018-07-02T00:00:55.973Z,60.00
2018-07-02T00:01:56.214Z,60.00
2018-07-02T00:02:56.459Z,60.00
2018-07-02T00:03:56.703Z,60.00
2018-07-02T00:04:56.946Z,60.00
2018-07-02T00:05:57.190Z,60.00
2018-07-02T00:06:57.434Z,60.00
2018-07-02T00:07:57.677Z,60.00
2018-07-02T00:08:57.921Z,60.00
2018-07-02T00:09:58.161Z,59.00
2018-07-02T00:10:58.400Z,59.00
2018-07-02T00:11:58.644Z,60.00
2018-07-02T00:12:58.887Z,60.00
2018-07-02T00:13:59.128Z,60.00
2018-07-02T00:14:59.373Z,60.00
2018-07-02T00:15:59.618Z,60.00
2018-07-02T00:16:59.866Z,60.00
2018-07-02T00:18:00.105Z,60.00
2018-07-02T00:19:00.349Z,60.00
2018-07-02T00:20:00.594Z,60.00
2018-07-02T00:21:00.837Z,60.00
2018-07-02T00:22:01.080Z,60.00
2018-07-02T00:23:01.324Z,60.00
2018-07-02T00:24:01.568Z,60.00
2018-07-02T00:25:01.806Z,60.00
2018-07-02T00:26:02.045Z,60.00
2018-07-02T00:27:02.286Z,59.00
2018-07-02T00:28:02.523Z,59.00
2018-07-02T00:29:02.765Z,58.00
2018-07-02T00:30:03.001Z,58.00
2018-07-02T00:31:03.242Z,57.00
2018-07-02T00:32:03.479Z,57.00
2018-07-02T00:33:03.720Z,57.00
2018-07-02T00:34:03.959Z,57.00
2018-07-02T00:35:04.197Z,57.00
2018-07-02T00:36:04.436Z,57.00
2018-07-02T00:37:04.676Z,58.00
2018-07-02T00:38:04.914Z,57.00
2018-07-02T00:39:05.154Z,57.00
2018-07-02T00:40:05.392Z,57.00
2018-07-02T00:41:05.629Z,57.00
2018-07-02T00:42:05.869Z,57.00
2018-07-02T00:43:06.107Z,57.00
2018-07-02T00:44:06.347Z,57.00
2018-07-02T00:45:06.587Z,57.00
2018-07-02T00:46:06.829Z,57.00
2018-07-02T00:47:07.064Z,57.00
2018-07-02T00:48:07.303Z,57.00
2018-07-02T00:49:07.541Z,57.00
2018-07-02T00:50:07.780Z,58.00
2018-07-02T00:51:08.019Z,57.00
2018-07-02T00:52:08.258Z,57.00
2018-07-02T00:53:08.495Z,57.00
2018-07-02T00:54:08.734Z,57.00
2018-07-02T00:55:08.973Z,57.00
2018-07-02T00:56:09.213Z,57.00
2018-07-02T00:57:09.454Z,57.00
2018-07-02T00:58:09.693Z,57.00
2018-07-02T00:59:09.932Z,57.00
2018-07-02T01:00:10.170Z,57.00
2018-07-02T01:01:10.410Z,57.00
2018-07-02T01:02:10.649Z,57.00
2018-07-02T01:03:10.889Z,57.00
2018-07-02T01:04:11.130Z,57.00
2018-07-02T01:05:11.366Z,57.00
2018-07-02T01:06:11.605Z,57.00
2018-07-02T01:07:11.843Z,57.00
2018-07-02T01:08:12.082Z,57.00
2018-07-02T01:09:12.320Z,58.00
2018-07-02T01:10:12.564Z,57.00
2018-07-02T01:11:12.796Z,57.00
2018-07-02T01:12:13.036Z,57.00
2018-07-02T01:13:13.275Z,57.00
2018-07-02T01:14:13.514Z,57.00
2018-07-02T01:15:13.753Z,57.00
2018-07-02T01:16:13.993Z,57.00
2018-07-02T01:17:14.231Z,57.00
2018-07-02T01:18:14.468Z,57.00
2018-07-02T01:19:14.707Z,57.00
2018-07-02T01:20:14.945Z,57.00
2018-07-02T01:21:15.183Z,57.00
2018-07-02T01:22:15.425Z,57.00
2018-07-02T01:23:15.660Z,57.00
2018-07-02T01:24:15.899Z,58.00
2018-07-02T01:25:16.137Z,57.00
2018-07-02T01:26:16.378Z,57.00
2018-07-02T01:27:16.614Z,57.00
2018-07-02T01:28:16.854Z,57.00
2018-07-02T01:29:17.092Z,57.00
2018-07-02T01:30:17.331Z,57.00
2018-07-02T01:31:17.568Z,57.00
2018-07-02T01:32:17.808Z,57.00
2018-07-02T01:33:18.046Z,57.00
2018-07-02T01:34:18.283Z,57.00
2018-07-02T01:35:18.521Z,57.00
2018-07-02T01:36:18.759Z,57.00
2018-07-02T01:37:18.998Z,57.00
2018-07-02T01:38:19.236Z,57.00
2018-07-02T01:39:19.476Z,57.00
2018-07-02T01:40:19.714Z,57.00
2018-07-02T01:41:19.952Z,58.00
2018-07-02T01:42:20.190Z,57.00
2018-07-02T01:43:20.427Z,57.00
2018-07-02T01:44:20.665Z,57.00
2018-07-02T01:45:20.909Z,57.00
2018-07-02T01:46:21.142Z,57.00
2018-07-02T01:47:21.379Z,57.00
2018-07-02T01:48:21.618Z,58.00
2018-07-02T01:49:21.857Z,58.00
2018-07-02T01:50:22.095Z,57.00
2018-07-02T01:51:22.333Z,58.00
2018-07-02T01:52:22.570Z,57.00
2018-07-02T01:53:22.812Z,58.00
2018-07-02T01:54:23.046Z,57.00
2018-07-02T01:55:23.285Z,57.00
2018-07-02T01:56:23.527Z,57.00
2018-07-02T01:57:23.762Z,57.00
2018-07-02T01:58:24.000Z,57.00
2018-07-02T01:59:24.239Z,57.00
2018-07-02T02:00:24.480Z,57.00
2018-07-02T02:01:24.717Z,57.00
2018-07-02T02:02:24.959Z,57.00
2018-07-02T02:03:25.193Z,58.00
2018-07-02T02:04:25.431Z,57.00
2018-07-02T02:05:25.668Z,58.00
2018-07-02T02:06:25.917Z,57.00
2018-07-02T02:07:26.156Z,59.00
2018-07-02T02:08:26.393Z,60.00
2018-07-02T02:09:26.631Z,59.00
2018-07-02T02:10:26.869Z,59.00
2018-07-02T02:11:27.110Z,59.00
2018-07-02T02:12:27.345Z,60.00
2018-07-02T02:13:27.586Z,60.00
2018-07-02T02:14:27.820Z,59.00
2018-07-02T02:15:28.054Z,58.00
2018-07-02T02:16:28.297Z,59.00
2018-07-02T02:17:28.534Z,59.00
2018-07-02T02:18:28.771Z,59.00
2018-07-02T02:19:29.014Z,59.00
2018-07-02T02:20:29.247Z,59.00
2018-07-02T02:21:29.483Z,58.00
2018-07-02T02:22:29.721Z,59.00
2018-07-02T02:23:29.960Z,58.00
2018-07-02T02:24:30.197Z,58.00
2018-07-02T02:25:30.435Z,59.00
2018-07-02T02:26:30.671Z,60.00
2018-07-02T02:27:30.910Z,59.00
2018-07-02T02:28:31.147Z,59.00
2018-07-02T02:29:31.384Z,58.00
2018-07-02T02:30:31.622Z,59.00
2018-07-02T02:31:31.862Z,58.00
2018-07-02T02:32:32.097Z,58.00
2018-07-02T02:33:32.336Z,58.00
2018-07-02T02:34:32.575Z,58.00
2018-07-02T02:35:32.809Z,58.00
2018-07-02T02:36:33.049Z,60.00
2018-07-02T02:37:33.286Z,58.00
2018-07-02T02:38:33.524Z,58.00
2018-07-02T02:39:33.766Z,58.00
2018-07-02T02:40:34.003Z,58.00
2018-07-02T02:41:34.239Z,58.00
2018-07-02T02:42:34.478Z,58.00
2018-07-02T02:43:34.719Z,58.00
2018-07-02T02:44:34.952Z,58.00
2018-07-02T02:45:35.191Z,58.00
2018-07-02T02:46:35.428Z,58.00
2018-07-02T02:47:35.666Z,58.00
2018-07-02T02:48:35.905Z,58.00
2018-07-02T02:49:36.142Z,58.00
2018-07-02T02:50:36.379Z,58.00
2018-07-02T02:51:36.617Z,58.00
2018-07-02T02:52:36.854Z,59.00
2018-07-02T02:53:37.092Z,58.00
2018-07-02T02:54:37.328Z,58.00
2018-07-02T02:55:37.569Z,58.00
2018-07-02T02:56:37.804Z,57.00
2018-07-02T02:57:38.043Z,58.00
2018-07-02T02:58:38.281Z,58.00
2018-07-02T02:59:38.518Z,58.00
2018-07-02T03:00:38.757Z,58.00
2018-07-02T03:01:38.993Z,58.00
2018-07-02T03:02:39.232Z,58.00
2018-07-02T03:03:39.473Z,58.00
2018-07-02T03:04:39.707Z,58.00
2018-07-02T03:05:39.943Z,58.00
2018-07-02T03:06:40.180Z,58.00
2018-07-02T03:07:40.418Z,58.00
2018-07-02T03:08:40.656Z,58.00
2018-07-02T03:09:40.926Z,58.00
2018-07-02T03:10:41.131Z,58.00
2018-07-02T03:11:41.368Z,58.00
2018-07-02T03:12:41.606Z,58.00
2018-07-02T03:13:41.841Z,57.00
2018-07-02T03:14:42.080Z,58.00
2018-07-02T03:15:42.322Z,58.00
2018-07-02T03:16:42.559Z,58.00
2018-07-02T03:17:42.795Z,58.00
2018-07-02T03:18:43.030Z,58.00
2018-07-02T03:19:43.269Z,58.00
2018-07-02T03:20:43.508Z,58.00
2018-07-02T03:21:43.750Z,59.00
2018-07-02T03:22:43.987Z,58.00
2018-07-02T03:23:44.223Z,59.00
2018-07-02T03:24:44.460Z,58.00
2018-07-02T03:25:44.698Z,58.00
2018-07-02T03:26:44.935Z,58.00
2018-07-02T03:27:45.175Z,58.00
2018-07-02T03:28:45.411Z,58.00
2018-07-02T03:29:45.648Z,60.00
2018-07-02T03:30:45.887Z,59.00
2018-07-02T03:31:46.125Z,58.00
2018-07-02T03:32:46.360Z,58.00
2018-07-02T03:33:46.599Z,59.00
2018-07-02T03:34:46.836Z,59.00
2018-07-02T03:35:47.074Z,58.00
2018-07-02T03:36:47.312Z,58.00
2018-07-02T03:37:47.550Z,60.00
2018-07-02T03:38:47.789Z,60.00
2018-07-02T03:39:48.027Z,58.00
2018-07-02T03:40:48.266Z,58.00
2018-07-02T03:41:48.504Z,58.00
2018-07-02T03:42:48.741Z,65.00
2018-07-02T03:43:48.980Z,59.00
2018-07-02T03:44:49.220Z,58.00
2018-07-02T03:45:49.459Z,59.00
2018-07-02T03:46:49.697Z,59.00
2018-07-02T03:47:49.934Z,62.00
2018-07-02T03:48:50.174Z,58.00
2018-07-02T03:49:50.412Z,58.00
2018-07-02T03:50:50.652Z,58.00
2018-07-02T03:51:50.890Z,59.00
2018-07-02T03:52:51.132Z,58.00
2018-07-02T03:53:51.367Z,60.00
2018-07-02T03:54:51.606Z,59.00
2018-07-02T03:55:51.845Z,62.00
2018-07-02T03:56:52.083Z,58.00
2018-07-02T03:57:52.323Z,58.00
2018-07-02T03:58:52.561Z,58.00
2018-07-02T03:59:52.798Z,58.00
2018-07-02T04:00:53.041Z,58.00
2018-07-02T04:01:53.275Z,58.00
2018-07-02T04:02:53.514Z,58.00
2018-07-02T04:03:53.753Z,58.00
2018-07-02T04:04:53.996Z,58.00
2018-07-02T04:05:54.229Z,59.00
2018-07-02T04:06:54.466Z,58.00
2018-07-02T04:07:54.706Z,58.00
2018-07-02T04:08:54.941Z,59.00
2018-07-02T04:09:55.181Z,60.00
2018-07-02T04:10:55.420Z,58.00
2018-07-02T04:11:55.659Z,58.00
2018-07-02T04:12:55.926Z,58.00
2018-07-02T04:13:56.137Z,58.00
2018-07-02T04:14:56.375Z,60.00
2018-07-02T04:15:56.614Z,58.00
2018-07-02T04:16:56.855Z,59.00
2018-07-02T04:17:57.095Z,58.00
2018-07-02T04:18:57.336Z,61.00
2018-07-02T04:19:57.574Z,59.00
2018-07-02T04:20:57.814Z,58.00
2018-07-02T04:21:58.053Z,58.00
2018-07-02T04:22:58.292Z,58.00
2018-07-02T04:23:58.530Z,58.00
2018-07-02T04:24:58.769Z,58.00
2018-07-02T04:25:59.020Z,58.00
2018-07-02T04:26:59.246Z,60.00
2018-07-02T04:27:59.489Z,58.00
2018-07-02T04:28:59.728Z,60.00
2018-07-02T04:29:59.965Z,60.00
2018-07-02T04:31:00.204Z,60.00
2018-07-02T04:32:00.444Z,60.00
2018-07-02T04:33:00.682Z,60.00
2018-07-02T04:34:00.921Z,60.00
2018-07-02T04:35:01.161Z,61.00
2018-07-02T04:36:01.399Z,60.00
2018-07-02T04:37:01.639Z,60.00
2018-07-02T04:38:01.878Z,60.00
2018-07-02T04:39:02.125Z,60.00
2018-07-02T04:40:02.359Z,60.00
2018-07-02T04:41:02.599Z,60.00
2018-07-02T04:42:02.836Z,60.00
2018-07-02T04:43:03.525Z,60.00
2018-07-02T04:44:03.314Z,60.00
2018-07-02T04:45:03.597Z,59.00
2018-07-02T04:46:03.795Z,58.00
2018-07-02T04:47:04.034Z,59.00
2018-07-02T04:48:04.273Z,60.00
2018-07-02T04:49:04.513Z,58.00
2018-07-02T04:50:04.753Z,58.00
2018-07-02T04:51:04.990Z,59.00
2018-07-02T04:52:05.231Z,60.00
2018-07-02T04:53:05.470Z,59.00
2018-07-02T04:54:05.710Z,60.00
2018-07-02T04:55:05.948Z,60.00
2018-07-02T04:56:06.188Z,58.00
2018-07-02T04:57:06.428Z,58.00
2018-07-02T04:58:06.667Z,58.00
2018-07-02T04:59:06.907Z,59.00
2018-07-02T05:00:07.146Z,60.00
2018-07-02T05:01:07.385Z,58.00
2018-07-02T05:02:07.626Z,59.00
2018-07-02T05:03:07.865Z,59.00
2018-07-02T05:04:08.104Z,58.00
2018-07-02T05:05:08.343Z,58.00
2018-07-02T05:06:08.583Z,59.00
2018-07-02T05:07:08.823Z,60.00
2018-07-02T05:08:09.063Z,62.00
2018-07-02T05:09:09.304Z,58.00
2018-07-02T05:10:09.544Z,58.00
2018-07-02T05:11:09.785Z,58.00
2018-07-02T05:12:10.028Z,60.00
2018-07-02T05:13:10.265Z,61.00
2018-07-02T05:14:10.504Z,58.00
2018-07-02T05:15:10.744Z,58.00
2018-07-02T05:16:10.984Z,58.00
2018-07-02T05:17:11.225Z,58.00
2018-07-02T05:18:11.465Z,58.00
2018-07-02T05:19:11.705Z,58.00
2018-07-02T05:20:11.945Z,59.00
2018-07-02T05:21:12.185Z,58.00
2018-07-02T05:22:12.425Z,58.00
2018-07-02T05:23:12.666Z,58.00
2018-07-02T05:24:12.910Z,58.00
2018-07-02T05:25:13.147Z,58.00
2018-07-02T05:26:13.386Z,58.00
2018-07-02T05:27:13.626Z,58.00
2018-07-02T05:28:13.865Z,58.00
2018-07-02T05:29:14.116Z,60.00
2018-07-02T05:30:14.347Z,61.00
2018-07-02T05:31:14.588Z,58.00
2018-07-02T05:32:14.828Z,60.00
2018-07-02T05:33:15.069Z,58.00
2018-07-02T05:34:15.309Z,59.00
2018-07-02T05:35:15.548Z,65.00
2018-07-02T05:36:15.789Z,59.00
2018-07-02T05:37:16.032Z,61.00
2018-07-02T05:38:16.271Z,60.00
2018-07-02T05:39:16.511Z,58.00
2018-07-02T05:40:16.752Z,60.00
2018-07-02T05:41:16.995Z,58.00
2018-07-02T05:42:17.233Z,58.00
2018-07-02T05:43:17.473Z,58.00
2018-07-02T05:44:17.713Z,58.00
2018-07-02T05:45:17.954Z,58.00
2018-07-02T05:46:18.194Z,58.00
2018-07-02T05:47:18.434Z,58.00
2018-07-02T05:48:18.676Z,60.00
2018-07-02T05:49:18.918Z,58.00
2018-07-02T05:50:19.160Z,58.00
2018-07-02T05:51:19.399Z,58.00
2018-07-02T05:52:19.641Z,60.00
2018-07-02T05:53:19.883Z,58.00
2018-07-02T05:54:20.124Z,58.00
2018-07-02T05:55:20.367Z,58.00
2018-07-02T05:56:20.606Z,58.00
2018-07-02T05:57:20.951Z,58.00
2018-07-02T05:58:21.091Z,58.00
2018-07-02T05:59:21.331Z,58.00
2018-07-02T06:00:21.643Z,64.00
2018-07-02T06:01:21.813Z,58.00
2018-07-02T06:02:22.056Z,58.00
2018-07-02T06:03:22.297Z,59.00
2018-07-02T06:04:22.538Z,65.00
2018-07-02T06:05:22.779Z,58.00
2018-07-02T06:06:23.020Z,60.00
2018-07-02T06:07:23.260Z,58.00
2018-07-02T06:08:23.508Z,59.00
2018-07-02T06:09:23.746Z,60.00
2018-07-02T06:10:23.988Z,58.00
2018-07-02T06:11:24.227Z,59.00
2018-07-02T06:12:24.468Z,59.00
2018-07-02T06:13:24.710Z,60.00
2018-07-02T06:14:24.953Z,59.00
2018-07-02T06:15:25.195Z,58.00
2018-07-02T06:16:25.487Z,58.00
2018-07-02T06:17:25.678Z,58.00
2018-07-02T06:18:25.918Z,58.00
2018-07-02T06:19:26.162Z,58.00
2018-07-02T06:20:26.403Z,58.00
2018-07-02T06:21:26.647Z,57.00
2018-07-02T06:22:26.888Z,58.00
2018-07-02T06:23:27.130Z,58.00
2018-07-02T06:24:27.371Z,60.00
2018-07-02T06:25:27.616Z,60.00
2018-07-02T06:26:27.858Z,60.00
2018-07-02T06:27:28.099Z,59.00
2018-07-02T06:28:28.346Z,60.00
2018-07-02T06:29:28.590Z,60.00
2018-07-02T06:30:28.867Z,58.00
2018-07-02T06:31:29.079Z,58.00
2018-07-02T06:32:29.322Z,58.00
2018-07-02T06:33:29.562Z,57.00
2018-07-02T06:34:29.808Z,58.00
2018-07-02T06:35:30.051Z,58.00
2018-07-02T06:36:30.295Z,58.00
2018-07-02T06:37:30.539Z,58.00
2018-07-02T06:38:30.779Z,60.00
2018-07-02T06:39:31.021Z,59.00
2018-07-02T06:40:31.262Z,59.00
2018-07-02T06:41:31.507Z,60.00
2018-07-02T06:42:31.750Z,61.00
2018-07-02T06:43:31.993Z,58.00
2018-07-02T06:44:32.236Z,60.00
2018-07-02T06:45:32.478Z,58.00
2018-07-02T06:46:32.724Z,58.00
2018-07-02T06:47:32.977Z,58.00
2018-07-02T06:48:33.245Z,58.00
2018-07-02T06:49:33.452Z,58.00
2018-07-02T06:50:33.693Z,58.00
2018-07-02T06:51:33.937Z,59.00
2018-07-02T06:52:34.180Z,59.00
2018-07-02T06:53:34.424Z,59.00
2018-07-02T06:54:34.670Z,60.00
2018-07-02T06:55:34.911Z,58.00
2018-07-02T06:56:35.160Z,58.00
2018-07-02T06:57:35.398Z,59.00
2018-07-02T06:58:35.676Z,60.00
2018-07-02T06:59:35.886Z,58.00
2018-07-02T07:00:36.129Z,60.00
2018-07-02T07:01:36.372Z,60.00
2018-07-02T07:02:36.615Z,58.00
2018-07-02T07:03:36.859Z,61.00
2018-07-02T07:04:37.104Z,61.00
2018-07-02T07:05:37.348Z,59.00
2018-07-02T07:06:37.594Z,60.00
2018-07-02T07:07:37.834Z,64.00
2018-07-02T07:08:38.104Z,59.00
2018-07-02T07:09:38.320Z,60.00
2018-07-02T07:10:38.564Z,61.00
2018-07-02T07:11:38.806Z,58.00
2018-07-02T07:12:39.050Z,60.00
2018-07-02T07:13:39.295Z,60.00
2018-07-02T07:14:39.537Z,62.00
2018-07-02T07:15:39.798Z,59.00
2018-07-02T07:16:40.027Z,60.00
2018-07-02T07:17:40.267Z,60.00
2018-07-02T07:18:40.513Z,59.00
2018-07-02T07:19:40.757Z,61.00
2018-07-02T07:20:41.001Z,60.00
2018-07-02T07:21:41.247Z,61.00
2018-07-02T07:22:41.489Z,60.00
2018-07-02T07:23:41.733Z,58.00
2018-07-02T07:24:41.976Z,60.00
2018-07-02T07:25:42.231Z,63.00
2018-07-02T07:26:42.469Z,65.00
2018-07-02T07:27:42.717Z,61.00
2018-07-02T07:28:42.959Z,60.00
2018-07-02T07:29:43.202Z,58.00
2018-07-02T07:30:43.445Z,59.00
2018-07-02T07:31:43.690Z,59.00
2018-07-02T07:32:43.935Z,60.00
2018-07-02T07:33:44.180Z,57.00
2018-07-02T07:34:44.426Z,59.00
2018-07-02T07:35:44.670Z,58.00
2018-07-02T07:36:44.915Z,59.00
2018-07-02T07:37:45.162Z,58.00
2018-07-02T07:38:45.408Z,58.00
2018-07-02T07:39:45.655Z,64.00
2018-07-02T07:40:45.902Z,64.00
2018-07-02T07:41:46.148Z,58.00
2018-07-02T07:42:46.394Z,58.00
2018-07-02T07:43:46.641Z,59.00
2018-07-02T07:44:46.943Z,59.00
2018-07-02T07:45:47.135Z,60.00
2018-07-02T07:46:47.384Z,58.00
2018-07-02T07:47:47.675Z,58.00
2018-07-02T07:48:47.941Z,59.00
2018-07-02T07:49:48.190Z,61.00
2018-07-02T07:50:48.440Z,60.00
2018-07-02T07:51:48.696Z,60.00
2018-07-02T07:52:48.936Z,60.00
2018-07-02T07:53:49.257Z,62.00
2018-07-02T07:54:49.507Z,63.00
2018-07-02T07:55:49.756Z,58.00
2018-07-02T07:56:50.004Z,62.00
2018-07-02T07:57:50.250Z,60.00
2018-07-02T07:58:50.499Z,60.00
2018-07-02T07:59:50.753Z,66.00
2018-07-02T08:00:51.038Z,58.00
2018-07-02T08:01:51.289Z,64.00
2018-07-02T08:02:51.581Z,65.00
2018-07-02T08:03:51.865Z,62.00
2018-07-02T08:04:52.210Z,60.00
2018-07-02T08:05:52.460Z,60.00
2018-07-02T08:06:52.710Z,60.00
2018-07-02T08:07:52.960Z,61.00
2018-07-02T08:08:53.276Z,67.00
2018-07-02T08:09:53.604Z,66.00
2018-07-02T08:10:53.859Z,67.00
2018-07-02T08:11:54.110Z,68.00
2018-07-02T08:12:54.362Z,67.00
2018-07-02T08:13:54.614Z,67.00
2018-07-02T08:14:54.867Z,66.00
2018-07-02T08:15:55.116Z,64.00
2018-07-02T08:16:55.368Z,60.00
2018-07-02T08:17:55.614Z,64.00
2018-07-02T08:18:55.912Z,59.00
2018-07-02T08:19:56.116Z,65.00
2018-07-02T08:20:56.362Z,65.00
2018-07-02T08:21:56.611Z,65.00
2018-07-02T08:22:56.861Z,69.00
2018-07-02T08:23:57.113Z,71.00
2018-07-02T08:24:57.363Z,66.00
2018-07-02T08:25:57.611Z,71.00
2018-07-02T08:26:57.863Z,65.00
2018-07-02T08:27:58.108Z,65.00
2018-07-02T08:28:58.357Z,61.00
2018-07-02T08:29:58.609Z,68.00
2018-07-02T08:30:58.857Z,59.00
2018-07-02T08:31:59.107Z,62.00
2018-07-02T08:32:59.426Z,60.00
2018-07-02T08:33:59.606Z,63.00
2018-07-02T08:34:59.859Z,61.00
2018-07-02T08:36:00.109Z,61.00
2018-07-02T08:37:00.363Z,60.00
2018-07-02T08:38:00.608Z,60.00
2018-07-02T08:39:00.859Z,58.00
2018-07-02T08:40:01.111Z,58.00
2018-07-02T08:41:01.363Z,58.00
2018-07-02T08:42:01.612Z,60.00
2018-07-02T08:43:01.865Z,63.00
2018-07-02T08:44:02.111Z,64.00
2018-07-02T08:45:02.363Z,61.00
2018-07-02T08:46:02.617Z,66.00
2018-07-02T08:47:02.868Z,64.00
2018-07-02T08:48:03.120Z,62.00
2018-07-02T08:49:03.370Z,60.00
2018-07-02T08:50:03.620Z,60.00
2018-07-02T08:51:03.874Z,66.00
2018-07-02T08:52:04.128Z,67.00
2018-07-02T08:53:04.382Z,66.00
2018-07-02T08:54:04.637Z,66.00
2018-07-02T08:55:04.892Z,66.00
2018-07-02T08:56:05.148Z,66.00
2018-07-02T08:57:05.404Z,67.00
2018-07-02T08:58:05.656Z,67.00
2018-07-02T08:59:05.911Z,67.00
2018-07-02T09:00:06.166Z,66.00
2018-07-02T09:01:06.420Z,66.00
2018-07-02T09:02:06.674Z,66.00
2018-07-02T09:03:06.928Z,67.00
2018-07-02T09:04:07.190Z,67.00
2018-07-02T09:05:07.435Z,66.00
2018-07-02T09:06:07.689Z,67.00
2018-07-02T09:07:07.942Z,67.00
2018-07-02T09:08:08.194Z,66.00
2018-07-02T09:09:08.449Z,68.00
2018-07-02T09:10:08.825Z,67.00
2018-07-02T09:11:08.957Z,66.00
2018-07-02T09:12:09.211Z,68.00
2018-07-02T09:13:09.464Z,69.00
2018-07-02T09:14:09.716Z,67.00
2018-07-02T09:15:09.973Z,68.00
2018-07-02T09:16:10.227Z,67.00
2018-07-02T09:17:10.478Z,66.00
2018-07-02T09:18:10.730Z,65.00
2018-07-02T09:19:10.984Z,67.00
2018-07-02T09:20:11.238Z,67.00
2018-07-02T09:21:11.499Z,66.00
2018-07-02T09:22:11.745Z,67.00
2018-07-02T09:23:11.999Z,67.00
2018-07-02T09:24:12.255Z,69.00
2018-07-02T09:25:12.738Z,67.00
2018-07-02T09:26:12.763Z,67.00
2018-07-02T09:27:13.019Z,67.00
2018-07-02T09:28:13.278Z,66.00
2018-07-02T09:29:13.530Z,70.00
2018-07-02T09:30:13.785Z,69.00
2018-07-02T09:31:14.038Z,66.00
2018-07-02T09:32:14.312Z,67.00
2018-07-02T09:33:14.549Z,66.00
2018-07-02T09:34:14.802Z,64.00
2018-07-02T09:35:15.056Z,66.00
2018-07-02T09:36:15.311Z,66.00
2018-07-02T09:37:15.568Z,66.00
2018-07-02T09:38:15.822Z,67.00
2018-07-02T09:39:16.126Z,68.00
2018-07-02T09:40:16.334Z,67.00
2018-07-02T09:41:16.592Z,66.00
2018-07-02T09:42:16.847Z,68.00
2018-07-02T09:43:17.107Z,71.00
2018-07-02T09:44:17.359Z,66.00
2018-07-02T09:45:17.615Z,65.00
2018-07-02T09:46:17.873Z,64.00
2018-07-02T09:47:18.130Z,65.00
2018-07-02T09:48:18.382Z,62.00
2018-07-02T09:49:18.635Z,60.00
2018-07-02T09:50:18.889Z,58.00
2018-07-02T09:51:19.142Z,61.00
2018-07-02T09:52:19.396Z,61.00
2018-07-02T09:53:19.650Z,61.00
2018-07-02T09:54:19.903Z,57.00
2018-07-02T09:55:20.156Z,60.00
2018-07-02T09:56:20.409Z,61.00
2018-07-02T09:57:20.664Z,61.00
2018-07-02T09:58:20.918Z,62.00
2018-07-02T09:59:21.174Z,64.00
2018-07-02T10:00:21.428Z,65.00
2018-07-02T10:01:21.682Z,68.00
2018-07-02T10:02:21.940Z,63.00
2018-07-02T10:03:22.193Z,67.00
2018-07-02T10:04:22.447Z,68.00
2018-07-02T10:05:22.705Z,63.00
2018-07-02T10:06:23.011Z,65.00
2018-07-02T10:07:23.213Z,61.00
2018-07-02T10:08:23.462Z,65.00
2018-07-02T10:09:23.716Z,67.00
2018-07-02T10:10:23.970Z,68.00
2018-07-02T10:11:24.223Z,64.00
2018-07-02T10:12:24.477Z,64.00
2018-07-02T10:13:24.730Z,65.00
2018-07-02T10:14:24.986Z,59.00
2018-07-02T10:15:25.237Z,59.00
2018-07-02T10:16:25.492Z,64.00
2018-07-02T10:17:25.744Z,62.00
2018-07-02T10:18:25.997Z,63.00
2018-07-02T10:19:26.249Z,62.00
2018-07-02T10:20:26.513Z,58.00
2018-07-02T10:21:26.755Z,61.00
2018-07-02T10:22:27.010Z,61.00
2018-07-02T10:23:27.364Z,62.00
2018-07-02T10:24:27.515Z,63.00
2018-07-02T10:25:27.769Z,65.00
2018-07-02T10:26:28.022Z,61.00
2018-07-02T10:27:28.276Z,62.00
2018-07-02T10:28:28.530Z,62.00
2018-07-02T10:29:28.792Z,61.00
2018-07-02T10:30:29.040Z,65.00
2018-07-02T10:31:29.358Z,60.00
2018-07-02T10:32:29.547Z,62.00
2018-07-02T10:33:29.801Z,60.00
2018-07-02T10:34:30.053Z,58.00
2018-07-02T10:35:30.307Z,57.00
2018-07-02T10:36:30.559Z,60.00
2018-07-02T10:37:30.814Z,61.00
2018-07-02T10:38:31.067Z,59.00
2018-07-02T10:39:31.321Z,63.00
2018-07-02T10:40:31.576Z,61.00
2018-07-02T10:41:31.831Z,61.00
2018-07-02T10:42:32.086Z,60.00
2018-07-02T10:43:32.340Z,62.00
2018-07-02T10:44:32.595Z,64.00
2018-07-02T10:45:32.852Z,61.00
2018-07-02T10:46:33.105Z,64.00
2018-07-02T10:47:33.357Z,60.00
2018-07-02T10:48:33.615Z,63.00
2018-07-02T10:49:33.868Z,64.00
2018-07-02T10:50:34.123Z,58.00
2018-07-02T10:51:34.376Z,58.00
2018-07-02T10:52:34.631Z,57.00
2018-07-02T10:53:34.887Z,60.00
2018-07-02T10:54:35.142Z,59.00
2018-07-02T10:55:35.448Z,66.00
2018-07-02T10:56:35.654Z,62.00
2018-07-02T10:57:35.908Z,60.00
2018-07-02T10:58:36.167Z,60.00
2018-07-02T10:59:36.420Z,60.00
2018-07-02T11:00:36.674Z,60.00
2018-07-02T11:01:36.927Z,60.00
2018-07-02T11:02:37.184Z,66.00
2018-07-02T11:03:37.442Z,64.00
2018-07-02T11:04:37.697Z,62.00
2018-07-02T11:05:37.950Z,59.00
2018-07-02T11:06:38.208Z,65.00
2018-07-02T11:07:38.464Z,69.00
2018-07-02T11:08:38.719Z,72.00
2018-07-02T11:09:38.978Z,62.00
2018-07-02T11:10:39.230Z,63.00
2018-07-02T11:11:39.486Z,63.00
2018-07-02T11:12:39.755Z,58.00
2018-07-02T11:13:40.004Z,60.00
2018-07-02T11:14:40.376Z,59.00
2018-07-02T11:15:40.553Z,60.00
2018-07-02T11:16:40.806Z,59.00
2018-07-02T11:17:41.061Z,65.00
2018-07-02T11:18:41.331Z,62.00
2018-07-02T11:19:41.620Z,60.00
2018-07-02T11:20:41.876Z,61.00
2018-07-02T11:21:42.132Z,62.00
2018-07-02T11:22:42.397Z,59.00
2018-07-02T11:23:42.729Z,57.00
2018-07-02T11:24:42.916Z,60.00
2018-07-02T11:25:43.168Z,57.00
2018-07-02T11:26:43.434Z,58.00
2018-07-02T11:27:43.695Z,58.00
2018-07-02T11:28:43.944Z,60.00
2018-07-02T11:29:44.198Z,58.00
2018-07-02T11:30:44.454Z,58.00
2018-07-02T11:31:44.714Z,58.00
2018-07-02T11:32:44.966Z,61.00
2018-07-02T11:33:45.228Z,60.00
2018-07-02T11:34:45.482Z,63.00
2018-07-02T11:35:45.738Z,57.00
2018-07-02T11:36:45.995Z,62.00
2018-07-02T11:37:46.252Z,61.00
2018-07-02T11:38:46.510Z,61.00
2018-07-02T11:39:46.772Z,62.00
2018-07-02T11:40:47.026Z,58.00
2018-07-02T11:41:47.282Z,60.00
2018-07-02T11:42:47.540Z,60.00
2018-07-02T11:43:47.795Z,61.00
2018-07-02T11:44:48.052Z,58.00
2018-07-02T11:45:48.309Z,61.00
2018-07-02T11:46:49.288Z,57.00
2018-07-02T11:47:48.855Z,58.00
2018-07-02T11:48:49.103Z,58.00
2018-07-02T11:49:49.359Z,62.00
2018-07-02T11:50:49.618Z,59.00
2018-07-02T11:51:49.869Z,66.00
2018-07-02T11:52:50.127Z,66.00
2018-07-02T11:53:50.383Z,62.00
2018-07-02T11:54:50.640Z,61.00
2018-07-02T11:55:50.895Z,58.00
2018-07-02T11:56:51.151Z,61.00
2018-07-02T11:57:51.406Z,60.00
2018-07-02T11:58:51.662Z,65.00
2018-07-02T11:59:51.918Z,64.00
2018-07-02T12:00:52.173Z,60.00
2018-07-02T12:01:52.435Z,59.00
2018-07-02T12:02:52.686Z,61.00
2018-07-02T12:03:52.937Z,59.00
2018-07-02T12:04:53.217Z,58.00
2018-07-02T12:05:53.474Z,66.00
2018-07-02T12:06:53.732Z,67.00
2018-07-02T12:07:53.990Z,73.00
2018-07-02T12:08:54.246Z,66.00
2018-07-02T12:09:54.506Z,62.00
2018-07-02T12:10:54.756Z,62.00
2018-07-02T12:11:55.009Z,62.00
2018-07-02T12:12:55.263Z,59.00
2018-07-02T12:13:55.521Z,63.00
2018-07-02T12:14:55.775Z,61.00
2018-07-02T12:15:56.031Z,61.00
2018-07-02T12:16:56.284Z,58.00
2018-07-02T12:17:56.537Z,59.00
2018-07-02T12:18:56.793Z,62.00
2018-07-02T12:19:57.049Z,61.00
2018-07-02T12:20:57.300Z,62.00
2018-07-02T12:21:57.553Z,60.00
2018-07-02T12:22:57.807Z,60.00
2018-07-02T12:23:58.061Z,62.00
2018-07-02T12:24:58.316Z,60.00
2018-07-02T12:25:58.571Z,64.00
2018-07-02T12:26:58.826Z,65.00
2018-07-02T12:27:59.080Z,60.00
2018-07-02T12:28:59.334Z,58.00
2018-07-02T12:29:59.587Z,62.00
2018-07-02T12:30:59.844Z,63.00
2018-07-02T12:32:00.098Z,63.00
2018-07-02T12:33:00.354Z,63.00
2018-07-02T12:34:00.610Z,58.00
2018-07-02T12:35:00.862Z,58.00
2018-07-02T12:36:01.125Z,58.00
2018-07-02T12:37:01.371Z,58.00
2018-07-02T12:38:01.626Z,59.00
2018-07-02T12:39:01.884Z,61.00
2018-07-02T12:40:02.136Z,61.00
2018-07-02T12:41:02.390Z,60.00
2018-07-02T12:42:02.647Z,65.00
2018-07-02T12:43:02.900Z,62.00
2018-07-02T12:44:03.161Z,70.00
2018-07-02T12:45:03.413Z,60.00
2018-07-02T12:46:03.666Z,60.00
2018-07-02T12:47:03.922Z,59.00
2018-07-02T12:48:04.176Z,60.00
2018-07-02T12:49:04.435Z,65.00
2018-07-02T12:50:04.688Z,60.00
2018-07-02T12:51:04.942Z,61.00
2018-07-02T12:52:05.199Z,68.00
2018-07-02T12:53:05.457Z,66.00
2018-07-02T12:54:05.743Z,61.00
2018-07-02T12:55:05.970Z,63.00
2018-07-02T12:56:06.223Z,60.00